Latest Weather Observations for Coober Pedy Airport

IDS60801

Issued at 1:31 pm CDT Saturday 10 December 2016 (issued every 30 minutes, with the page automatically refreshed every 10 minutes)

About weather observations | Map of weather stations | Latest weather observations for SA | Other Formats
Station Details ID: 016090 Name: COOBER PEDY AIRPORT Lat: -29.03 Lon: 134.72 Height: 225.0 m
Data from the previous 72 hours. | See also: Recent months at Coober Pedy Airport
Date/Time
CDT
Temp
°C
App
Temp
°C
Dew
Point
°C
Rel
Hum
%
Delta-T
°C
Wind Press
QNH
hPa
Press
MSL
hPa
Rain since
9am
mm
Dir  Spd
km/h
Gust
km/h
Spd
kts
Gust
kts
10/01:30pm 28.2 23.9 -1.8 14 13.8 SE 11 22 6 12 1020.2 1018.9 0.0
10/01:00pm 28.5 24.0 -0.6 15 13.7 ENE 13 32 7 17 1020.3 1019.0 0.0
10/12:30pm 27.1 22.5 -0.9 16 13.0 NE 13 24 7 13 1021.2 1019.9 0.0
10/12:00pm 27.1 22.3 0.0 17 12.8 ENE 15 30 8 16 1021.6 1020.3 0.0
10/11:30am 26.8 22.0 0.5 18 12.5 E 15 24 8 13 1021.8 1020.5 0.0
10/11:00am 26.6 20.6 1.1 19 12.2 ENE 22 30 12 16 1021.9 1020.6 0.0
10/10:30am 25.7 19.3 1.1 20 11.7 ENE 24 32 13 17 1022.1 1020.7 0.0
10/10:00am 25.0 17.8 0.5 20 11.5 ENE 28 33 15 18 1022.2 1020.8 0.0
10/09:30am 24.3 17.6 1.2 22 10.9 ENE 26 30 14 16 1022.2 1020.8 0.0
10/09:00am 22.6 16.0 2.1 26 9.7 ENE 26 32 14 17 1021.9 1020.6 0.0
10/08:30am 21.4 15.4 3.1 30 8.8 E 24 30 13 16 1021.7 1020.4 0.0
10/08:00am 19.9 13.5 3.2 33 7.9 E 26 32 14 17 1021.3 1020.0 0.0
10/07:30am 18.7 13.1 3.3 36 7.3 ESE 22 30 12 16 1020.9 1019.6 0.0
10/07:00am 17.5 12.7 2.7 37 6.8 ESE 17 20 9 11 1020.8 1019.5 0.0
10/06:30am 16.8 11.7 2.8 39 6.4 ESE 19 22 10 12 1020.3 1019.0 0.0
10/06:00am 17.4 12.0 2.2 36 6.9 ESE 20 24 11 13 1020.0 1018.7 0.0
10/05:30am 17.2 12.4 2.4 37 6.8 ESE 17 19 9 10 1019.7 1018.4 0.0
10/05:00am 17.7 12.5 2.5 36 7.0 ESE 19 20 10 11 1019.4 1018.1 0.0
10/04:30am 18.0 13.1 2.3 35 7.2 ESE 17 20 9 11 1019.0 1017.7 0.0
10/04:00am 18.9 14.0 2.3 33 7.7 ESE 17 20 9 11 1019.0 1017.7 0.0
10/03:30am 19.3 14.1 2.6 33 7.8 ESE 19 24 10 13 1018.7 1017.4 0.0
10/03:00am 19.5 14.4 2.8 33 7.8 ESE 19 24 10 13 1018.7 1017.4 0.0
10/02:30am 19.5 14.4 2.8 33 7.8 ESE 19 24 10 13 1018.9 1017.6 0.0
10/02:00am 19.7 15.0 3.0 33 7.9 ESE 17 20 9 11 1019.0 1017.7 0.0
10/01:30am 19.4 14.9 2.3 32 7.9 ESE 15 17 8 9 1019.2 1017.9 0.0
10/01:00am 19.9 15.4 2.3 31 8.2 SE 15 17 8 9 1019.3 1018.0 0.0
10/12:30am 20.0 15.4 1.4 29 8.5 ESE 15 15 8 8 1019.5 1018.2 0.0
10/12:00am 20.4 16.1 0.8 27 8.9 ESE 13 15 7 8 1019.6 1018.3 0.0
 
Date/Time
CDT
Temp
°C
App
Temp
°C
Dew
Point
°C
Rel
Hum
%
Delta-T
°C
Wind Press
QNH
hPa
Press
MSL
hPa
Rain since
9am
mm
Dir  Spd
km/h
Gust
km/h
Spd
kts
Gust
kts
09/11:30pm 21.0 16.6 0.2 25 9.4 ESE 13 13 7 7 1019.7 1018.4 0.0
09/11:00pm 21.6 17.6 0.2 24 9.7 E 11 13 6 7 1019.5 1018.2 0.0
09/10:30pm 21.9 17.9 0.4 24 9.8 ESE 11 11 6 6 1019.5 1018.2 0.0
09/10:00pm 22.5 18.9 0.4 23 10.2 E 9 11 5 6 1019.3 1018.0 0.0
09/09:30pm 23.6 19.1 0.0 21 10.8 ESE 13 13 7 7 1019.2 1017.9 0.0
09/09:00pm 24.4 20.3 0.0 20 11.3 ESE 11 13 6 7 1018.8 1017.5 0.0
09/08:30pm 25.5 20.2 -0.5 18 12.0 ESE 17 20 9 11 1018.6 1017.3 0.0
09/08:00pm 26.4 21.1 -0.6 17 12.6 SE 17 24 9 13 1018.4 1017.0 0.0
09/07:30pm 26.9 21.5 -1.0 16 12.9 SE 17 30 9 16 1018.1 1016.7 0.0
09/07:00pm 27.2 21.8 -1.7 15 13.3 SE 17 28 9 15 1017.9 1016.5 0.0
09/06:30pm 27.6 21.8 -1.3 15 13.4 SE 19 28 10 15 1017.6 1016.2 0.0
09/06:00pm 27.9 21.5 -2.0 14 13.7 SE 22 30 12 16 1017.6 1016.2 0.0
09/05:30pm 27.4 22.4 -1.5 15 13.3 SE 15 24 8 13 1017.7 1016.3 0.0
09/05:00pm 27.0 21.9 -1.8 15 13.2 SE 15 24 8 13 1017.9 1016.5 0.0
09/04:30pm 27.2 22.1 -1.7 15 13.2 SSE 15 26 8 14 1018.0 1016.6 0.0
09/04:00pm 27.3 21.4 -2.5 14 13.5 SE 19 33 10 18 1018.2 1016.8 0.0
09/03:30pm 27.1 21.9 0.0 17 12.8 SSE 17 28 9 15 1018.4 1017.0 0.0
09/03:00pm 25.8 21.3 -0.3 18 12.1 SE 13 24 7 13 1018.9 1017.6 0.0
09/02:30pm 25.1 20.7 0.6 20 11.5 SE 13 24 7 13 1019.3 1018.0 0.0
09/02:00pm 24.2 19.5 1.2 22 10.9 SE 15 30 8 16 1019.6 1018.3 0.0
09/01:30pm 23.3 18.4 2.2 25 10.1 SE 17 24 9 13 1020.1 1018.8 0.0
09/01:00pm 23.0 18.3 3.0 27 9.7 SE 17 26 9 14 1020.5 1019.2 0.0
09/12:30pm 21.9 17.1 2.6 28 9.2 SE 17 28 9 15 1020.8 1019.5 0.0
09/12:00pm 21.3 17.1 4.0 32 8.4 ESE 15 24 8 13 1021.2 1019.9 0.0
09/11:30am 20.9 16.1 4.5 34 8.0 ESE 19 28 10 15 1021.3 1020.0 0.0
09/11:00am 19.9 15.4 4.0 35 7.7 SE 17 24 9 13 1021.3 1020.0 0.0
09/10:30am 19.0 14.1 4.0 37 7.2 SE 19 30 10 16 1021.4 1020.1 0.0
09/10:00am 18.6 13.7 5.1 41 6.6 SE 20 32 11 17 1021.5 1020.2 0.0
09/09:30am 17.0 11.3 4.7 44 5.9 SE 24 33 13 18 1021.5 1020.2 0.0
09/09:00am 16.8 10.8 5.4 47 5.5 SE 26 35 14 19 1021.6 1020.3 0.0
09/08:30am 15.6 8.8 5.2 50 5.0 SSE 30 35 16 19 1021.3 1020.0 0.0
09/08:00am 14.9 8.2 5.4 53 4.6 SSE 30 39 16 21 1021.0 1019.7 0.0
09/07:30am 14.0 9.2 5.4 56 4.1 S 20 26 11 14 1021.0 1019.7 0.0
09/07:00am 13.3 9.4 5.2 58 3.8 S 15 20 8 11 1020.6 1019.3 0.0
09/06:30am 13.1 9.2 5.3 59 3.7 S 15 20 8 11 1020.3 1019.0 0.0
09/06:00am 13.5 8.8 5.2 57 3.9 SSE 19 24 10 13 1020.0 1018.7 0.0
09/05:30am 13.6 8.7 5.3 57 3.9 S 20 26 11 14 1019.7 1018.4 0.0
09/05:00am 14.3 7.9 5.4 55 4.2 SSE 28 33 15 18 1019.3 1018.0 0.0
09/04:30am 14.6 8.6 5.4 54 4.4 S 26 35 14 19 1019.3 1018.0 0.0
09/04:00am 14.9 8.1 5.1 52 4.7 S 30 39 16 21 1019.0 1017.7 0.0
09/03:30am 15.4 8.2 5.9 53 4.6 S 33 39 18 21 1018.8 1017.5 0.0
09/03:00am 15.9 8.9 5.8 51 4.9 S 32 39 17 21 1018.6 1017.3 0.0
09/02:30am 16.4 9.2 5.7 49 5.2 S 33 44 18 24 1018.6 1017.3 0.0
09/02:00am 17.0 9.8 5.0 45 5.8 S 32 41 17 22 1018.6 1017.3 0.0
09/01:30am 17.6 10.2 4.2 41 6.4 S 32 44 17 24 1018.6 1017.3 0.0
09/01:00am 18.2 10.2 3.7 38 6.9 S 35 44 19 24 1018.5 1017.1 0.0
09/12:30am 18.9 10.7 2.7 34 7.6 S 35 43 19 23 1018.4 1017.0 0.0
09/12:00am 19.5 11.6 2.4 32 8.0 S 33 43 18 23 1018.5 1017.1 0.0
 
Date/Time
CDT
Temp
°C
App
Temp
°C
Dew
Point
°C
Rel
Hum
%
Delta-T
°C
Wind Press
QNH
hPa
Press
MSL
hPa
Rain since
9am
mm
Dir  Spd
km/h
Gust
km/h
Spd
kts
Gust
kts
08/11:30pm 20.1 12.3 1.5 29 8.6 S 32 43 17 23 1018.3 1016.9 0.0
08/11:00pm 20.9 13.1 2.7 30 8.6 S 33 44 18 24 1017.9 1016.5 0.0
08/10:30pm 21.9 15.0 4.5 32 8.6 S 30 41 16 22 1017.5 1016.1 0.0
08/10:00pm 22.7 15.3 4.2 30 9.2 S 32 41 17 22 1016.8 1015.5 0.0
08/09:30pm 23.4 16.4 3.9 28 9.6 S 30 35 16 19 1016.4 1015.1 0.0
08/09:00pm 24.0 16.9 3.3 26 10.2 S 30 39 16 21 1016.0 1014.7 0.0
08/08:30pm 24.7 17.8 2.8 24 10.7 S 28 37 15 20 1015.6 1014.3 0.0
08/08:00pm 25.6 17.7 2.3 22 11.4 S 33 43 18 23 1015.2 1013.9 0.0
08/07:30pm 26.3 18.9 1.6 20 11.9 S 30 39 16 21 1014.7 1013.4 0.0
08/07:00pm 26.8 19.2 2.7 21 11.9 SSW 32 39 17 21 1014.3 1012.9 0.0
08/06:30pm 27.6 19.8 1.9 19 12.6 SSW 32 43 17 23 1014.0 1012.6 0.0
08/06:11pm 27.2 19.6 0.8 18 12.7 SSW 30 48 16 26 1013.7 1012.3 0.0
08/06:00pm 27.0 19.0 1.4 19 12.4 SSW 33 46 18 25 1013.8 1012.4 0.0
08/05:30pm 27.5 19.9 2.6 20 12.4 SSW 32 46 17 25 1013.7 1012.3 0.0
08/05:00pm 27.8 20.2 2.8 20 12.5 SW 32 46 17 25 1013.7 1012.3 0.0
08/04:30pm 27.1 19.3 2.9 21 12.0 SSW 33 46 18 25 1013.8 1012.4 0.0
08/04:00pm 26.6 18.1 1.1 19 12.2 SSW 35 48 19 26 1013.9 1012.5 0.0
08/03:33pm 27.0 19.2 2.8 21 12.0 SW 33 52 18 28 1013.8 1012.4 0.0
08/03:30pm 27.3 20.0 2.4 20 12.3 SW 30 43 16 23 1013.9 1012.5 0.0
08/03:00pm 26.5 18.1 1.7 20 12.0 SSW 35 50 19 27 1014.1 1012.7 0.0
08/02:30pm 26.1 18.0 3.4 23 11.3 SW 35 48 19 26 1014.4 1013.0 0.0
08/02:00pm 25.2 17.3 4.3 26 10.5 SSW 35 50 19 27 1014.6 1013.3 0.0
08/01:30pm 25.0 16.9 5.2 28 10.1 SW 37 52 20 28 1014.9 1013.6 0.0
08/01:00pm 24.7 15.8 5.0 28 10.0 SSW 41 50 22 27 1015.1 1013.8 0.0
08/12:30pm 23.6 15.3 6.0 32 9.1 SW 39 52 21 28 1014.9 1013.6 0.0
08/12:14pm 22.9 15.4 6.2 34 8.6 SSW 35 57 19 31 1014.9 1013.6 0.0
08/12:00pm 22.9 15.1 6.6 35 8.4 SSW 37 44 20 24 1015.0 1013.7 0.0
08/11:30am 20.6 13.3 7.2 42 6.9 SSW 35 50 19 27 1015.0 1013.7 0.0
08/11:00am 20.2 13.1 7.9 45 6.4 SSW 35 44 19 24 1015.3 1014.0 0.0
08/10:30am 19.1 11.6 7.8 48 5.8 SSW 37 46 20 25 1015.2 1013.9 0.0
08/10:00am 18.5 11.1 8.2 51 5.4 SSW 37 46 20 25 1015.2 1013.9 0.0
08/09:30am 18.4 10.6 8.4 52 5.2 SSW 39 50 21 27 1015.1 1013.8 0.0
08/09:00am 17.6 8.9 7.9 53 5.0 SW 43 52 23 28 1014.8 1013.5 1.0
08/08:30am 17.3 9.3 9.0 58 4.3 SSW 41 48 22 26 1014.8 1013.5 1.0
08/08:00am 17.1 9.2 9.3 60 4.1 SW 41 54 22 29 1014.3 1012.9 1.0
08/07:30am 17.1 9.5 9.0 59 4.2 SSW 39 50 21 27 1013.7 1012.3 1.0
08/07:00am 17.2 10.0 10.6 65 3.6 SW 39 52 21 28 1013.0 1011.6 1.0
08/06:30am 17.6 10.2 11.2 66 3.5 SW 41 50 22 27 1012.0 1010.7 1.0
08/06:00am 18.0 10.2 11.3 65 3.7 SW 43 52 23 28 1011.6 1010.3 1.0
08/05:30am 18.4 10.0 11.0 62 4.1 SW 46 57 25 31 1010.8 1009.5 1.0
08/05:00am 18.6 12.1 12.8 69 3.3 SW 39 46 21 25 1010.2 1008.8 1.0
08/04:30am 19.0 12.3 12.3 65 3.8 SSW 39 48 21 26 1009.8 1008.4 1.0
08/04:00am 19.5 14.7 13.0 66 3.7 SW 30 39 16 21 1009.2 1007.8 1.0
08/03:30am 20.3 13.3 13.7 66 3.8 SW 43 54 23 29 1009.2 1007.8 1.0
08/03:00am 21.7 15.3 16.0 70 3.5 SW 44 56 24 30 1008.9 1007.5 1.0
08/02:51am 22.2 17.2 16.2 69 3.7 SW 37 56 20 30 1008.7 1007.3 1.0
08/02:30am 23.0 19.7 17.9 73 3.2 SW 32 39 17 21 1008.5 1007.1 1.0
08/02:00am 23.6 21.5 18.9 75 3.0 SW 28 35 15 19 1008.3 1006.9 1.0
08/01:30am 23.6 20.1 19.5 78 2.7 SW 37 50 20 27 1008.2 1006.8 1.0
08/01:00am 25.8 20.7 18.5 64 4.7 SW 43 61 23 33 1007.6 1006.3 0.0
08/12:57am 26.2 20.9 18.1 61 5.2 WSW 43 61 23 33 1007.5 1006.2 0.0
08/12:49am 28.6 24.1 16.5 48 7.6 NW 35 54 19 29 1007.5 1006.2 0.0
08/12:30am 29.5 25.9 17.3 47 7.8 NNW 32 41 17 22 1005.8 1004.4 0.0
08/12:00am 29.8 26.2 16.2 43 8.6 N 30 41 16 22 1006.1 1004.7 0.0
 
Date/Time
CDT
Temp
°C
App
Temp
°C
Dew
Point
°C
Rel
Hum
%
Delta-T
°C
Wind Press
QNH
hPa
Press
MSL
hPa
Rain since
9am
mm
Dir  Spd
km/h
Gust
km/h
Spd
kts
Gust
kts
07/11:30pm 29.9 27.3 16.0 43 8.7 N 24 30 13 16 1006.3 1004.9 0.0
07/11:00pm 30.1 27.1 15.8 42 8.9 N 26 32 14 17 1006.6 1005.2 0.0
07/10:30pm 30.2 27.5 15.5 41 9.2 N 24 30 13 16 1006.5 1005.1 0.0
07/10:00pm 30.6 28.6 15.5 40 9.4 N 20 28 11 15 1006.6 1005.2 0.0
07/09:30pm 31.3 28.5 15.3 38 10.0 N 24 30 13 16 1006.6 1005.2 0.0
07/09:00pm 31.8 28.8 14.9 36 10.5 N 24 28 13 15 1006.4 1005.0 0.0
07/08:30pm 32.4 29.5 15.0 35 10.9 N 24 33 13 18 1006.5 1005.1 0.0
07/08:00pm 32.9 29.2 15.0 34 11.2 N 28 35 15 19 1006.5 1005.1 0.0
07/07:30pm 33.4 29.7 14.9 32 11.6 N 28 35 15 19 1006.6 1005.2 0.0
07/07:00pm 33.8 30.4 14.8 32 11.8 N 26 35 14 19 1006.7 1005.4 0.0
07/06:30pm 34.3 30.9 14.7 30 12.3 N 26 35 14 19 1006.9 1005.6 0.0
07/06:00pm 34.2 30.8 14.7 31 12.2 N 26 35 14 19 1007.2 1005.9 0.0
07/05:30pm 33.8 30.8 14.8 32 11.9 N 24 39 13 21 1007.6 1006.3 0.0
07/05:13pm 34.1 30.4 15.1 32 11.9 N 28 61 15 33 1007.8 1006.5 0.0
07/05:00pm 34.4 31.0 13.8 29 12.7 NNE 24 37 13 20 1008.1 1006.7 0.0
07/04:30pm 33.8 30.4 14.8 32 11.9 N 26 39 14 21 1009.0 1007.6 0.0
07/04:00pm 33.4 30.6 15.4 34 11.3 NNW 24 37 13 20 1009.3 1007.9 0.0
07/03:30pm 34.1 30.8 16.0 34 11.5 N 28 35 15 19 1009.7 1008.3 0.0
07/03:00pm 32.9 29.7 15.4 35 11.0 N 26 37 14 20 1010.2 1008.8 0.0
07/02:30pm 31.9 28.2 15.0 36 10.5 N 28 44 15 24 1010.7 1009.4 0.0
07/02:08pm 32.7 29.6 16.5 37 10.3 N 28 46 15 25 1011.0 1009.7 0.0
07/02:00pm 31.6 28.9 16.7 40 9.5 N 26 39 14 21 1011.1 1009.8 0.0

Other Formats:

Comma delimited format used in spreadsheet applications
http://www.bom.gov.au/fwo/IDS60801/IDS60801.95458.axf

JavaScript Object Notation format (JSON) in row-major order
http://www.bom.gov.au/fwo/IDS60801/IDS60801.95458.json